createdAt,value
2022-10-13T00:00:18.968Z,79.80
2022-10-13T00:02:46.788Z,80.00
2022-10-13T00:05:14.637Z,79.80
2022-10-13T00:07:43.889Z,79.80
2022-10-13T00:10:11.828Z,80.10
2022-10-13T00:12:40.159Z,79.60
2022-10-13T00:15:09.452Z,80.20
2022-10-13T00:17:37.321Z,80.00
2022-10-13T00:20:06.339Z,80.10
2022-10-13T00:22:34.170Z,80.30
2022-10-13T00:25:04.155Z,80.20
2022-10-13T00:27:32.541Z,80.40
2022-10-13T00:30:00.552Z,80.30
2022-10-13T00:32:28.356Z,83.50
2022-10-13T00:34:57.694Z,80.20
2022-10-13T00:37:25.721Z,80.40
2022-10-13T00:39:53.815Z,80.20
2022-10-13T00:42:26.230Z,80.30
2022-10-13T00:45:03.657Z,80.80
2022-10-13T00:47:37.081Z,81.10
2022-10-13T00:50:08.347Z,81.10
2022-10-13T00:52:37.379Z,81.10
2022-10-13T00:55:07.251Z,81.20
2022-10-13T00:57:39.737Z,82.10
2022-10-13T01:00:08.912Z,81.50
2022-10-13T01:02:38.163Z,81.50
2022-10-13T01:05:08.227Z,81.50
2022-10-13T01:07:36.806Z,81.60
2022-10-13T01:10:06.378Z,81.40
2022-10-13T01:12:45.270Z,81.70
2022-10-13T01:15:17.906Z,82.10
2022-10-13T01:17:54.728Z,81.80
2022-10-13T01:21:11.395Z,81.80
2022-10-13T01:24:18.455Z,82.10
2022-10-13T01:27:22.108Z,82.10
2022-10-13T01:30:08.639Z,81.80
2022-10-13T01:32:49.065Z,82.00
2022-10-13T01:35:21.669Z,82.00
2022-10-13T01:37:56.520Z,82.10
2022-10-13T01:40:27.279Z,82.20
2022-10-13T01:43:02.977Z,81.90
2022-10-13T01:45:36.762Z,82.40
2022-10-13T01:48:06.965Z,82.40
2022-10-13T01:50:37.850Z,82.40
2022-10-13T01:53:07.414Z,82.40
2022-10-13T01:55:35.569Z,82.60
2022-10-13T01:58:03.352Z,82.30
2022-10-13T02:00:40.280Z,82.30
2022-10-13T02:03:17.983Z,85.30
2022-10-13T02:05:50.959Z,82.70
2022-10-13T02:08:24.757Z,83.90
2022-10-13T02:10:58.508Z,82.70
2022-10-13T02:13:29.332Z,82.80
2022-10-13T02:16:01.411Z,82.70
2022-10-13T02:18:32.770Z,82.80
2022-10-13T02:21:01.522Z,82.80
2022-10-13T02:23:30.043Z,82.70
2022-10-13T02:26:00.092Z,82.60
2022-10-13T02:28:29.028Z,82.80
2022-10-13T02:30:58.868Z,82.80
2022-10-13T02:33:26.768Z,82.70
2022-10-13T02:35:54.605Z,82.40
2022-10-13T02:38:22.717Z,82.50
2022-10-13T02:40:50.717Z,82.40
2022-10-13T02:43:18.641Z,82.80
2022-10-13T02:45:46.497Z,82.80
2022-10-13T02:48:15.674Z,83.60
2022-10-13T02:50:43.480Z,82.80
2022-10-13T02:53:11.271Z,83.00
2022-10-13T02:55:39.077Z,83.10
2022-10-13T02:58:06.883Z,83.10
2022-10-13T03:00:34.874Z,83.10
2022-10-13T03:03:02.957Z,83.20
2022-10-13T03:05:32.164Z,83.20
2022-10-13T03:08:00.126Z,83.40
2022-10-13T03:10:28.034Z,83.40
2022-10-13T03:12:56.048Z,83.50
2022-10-13T03:15:24.417Z,83.60
2022-10-13T03:17:52.388Z,84.00
2022-10-13T03:20:20.498Z,83.40
2022-10-13T03:22:50.213Z,83.70
2022-10-13T03:25:20.291Z,83.90
2022-10-13T03:27:48.322Z,84.10
2022-10-13T03:30:16.187Z,85.40
2022-10-13T03:32:44.188Z,84.40
2022-10-13T03:35:11.950Z,84.40
2022-10-13T03:37:39.817Z,84.50
2022-10-13T03:40:10.919Z,84.50
2022-10-13T03:42:40.549Z,85.00
2022-10-13T03:45:10.645Z,84.70
2022-10-13T03:47:38.581Z,84.60
2022-10-13T03:50:07.477Z,84.60
2022-10-13T03:52:35.314Z,84.90
2022-10-13T03:55:03.368Z,84.80
2022-10-13T03:57:32.517Z,84.60
2022-10-13T04:00:00.529Z,84.90
2022-10-13T04:02:28.483Z,84.80
2022-10-13T04:04:56.605Z,84.80
2022-10-13T04:07:24.446Z,84.80
2022-10-13T04:09:52.439Z,84.90
2022-10-13T04:12:21.208Z,84.90
2022-10-13T04:14:50.724Z,84.90
2022-10-13T04:17:18.704Z,85.20
2022-10-13T04:19:46.650Z,86.50
2022-10-13T04:22:14.466Z,85.20
2022-10-13T04:24:42.370Z,85.30
2022-10-13T04:27:10.416Z,85.40
2022-10-13T04:29:38.285Z,85.50
2022-10-13T04:32:07.520Z,85.50
2022-10-13T04:34:35.445Z,85.50
2022-10-13T04:37:03.292Z,85.40
2022-10-13T04:39:31.235Z,85.30
2022-10-13T04:41:59.191Z,85.40
2022-10-13T04:44:27.032Z,85.50
2022-10-13T04:46:55.376Z,85.30
2022-10-13T04:49:25.346Z,85.50
2022-10-13T04:51:53.513Z,85.30
2022-10-13T04:54:21.345Z,87.50
2022-10-13T04:56:49.187Z,85.50
2022-10-13T04:59:17.312Z,85.50
2022-10-13T05:01:45.262Z,86.40
2022-10-13T05:04:13.324Z,85.60
2022-10-13T05:07:12.474Z,85.60
2022-10-13T05:09:32.257Z,85.90
2022-10-13T05:12:00.096Z,85.60
2022-10-13T05:14:27.850Z,85.80
2022-10-13T05:16:55.703Z,85.80
2022-10-13T05:19:23.470Z,85.90
2022-10-13T05:21:52.884Z,86.10
2022-10-13T05:24:30.989Z,86.00
2022-10-13T05:26:58.927Z,86.20
2022-10-13T05:29:26.873Z,89.00
2022-10-13T05:31:54.660Z,86.30
2022-10-13T05:34:22.633Z,86.50
2022-10-13T05:36:51.862Z,86.50
2022-10-13T05:39:19.751Z,86.80
2022-10-13T05:41:47.794Z,86.60
2022-10-13T05:44:17.348Z,88.30
2022-10-13T05:46:45.199Z,86.70
2022-10-13T05:49:13.031Z,86.80
2022-10-13T05:54:23.041Z,86.80
2022-10-13T05:56:55.060Z,87.50
2022-10-13T05:59:27.083Z,87.60
2022-10-13T06:01:56.027Z,87.60
2022-10-13T06:04:27.764Z,87.60
2022-10-13T06:06:55.641Z,87.90
2022-10-13T06:09:24.939Z,87.50
2022-10-13T06:11:52.730Z,88.20
2022-10-13T06:14:20.568Z,87.50
2022-10-13T06:16:48.360Z,87.80
2022-10-13T06:19:17.338Z,90.00
2022-10-13T06:21:45.184Z,88.00
2022-10-13T06:24:13.073Z,88.10
2022-10-13T06:26:42.612Z,88.10
2022-10-13T06:29:10.775Z,88.10
2022-10-13T06:31:38.867Z,88.20
2022-10-13T06:34:06.695Z,89.00
2022-10-13T06:36:34.611Z,88.20
2022-10-13T06:39:02.423Z,88.30
2022-10-13T06:41:30.264Z,88.40
2022-10-13T06:43:59.462Z,88.30
2022-10-13T06:46:27.530Z,88.40
2022-10-13T06:48:55.566Z,88.40
2022-10-13T06:51:23.649Z,88.60
2022-10-13T06:53:51.767Z,88.50
2022-10-13T06:56:19.535Z,89.90
2022-10-13T06:58:48.169Z,88.80
2022-10-13T07:01:17.680Z,89.00
2022-10-13T07:03:45.634Z,89.00
2022-10-13T07:06:13.444Z,89.20
2022-10-13T07:08:41.258Z,89.10
2022-10-13T07:11:15.965Z,90.40
2022-10-13T07:13:46.883Z,89.70
2022-10-13T07:16:17.170Z,89.80
2022-10-13T07:18:45.091Z,90.30
2022-10-13T07:21:12.874Z,89.70
2022-10-13T07:23:40.873Z,90.90
2022-10-13T07:26:09.460Z,90.00
2022-10-13T07:28:37.410Z,90.10
2022-10-13T07:31:10.885Z,90.10
2022-10-13T07:33:40.414Z,90.30
2022-10-13T07:36:09.290Z,90.30
2022-10-13T07:38:37.422Z,90.30
2022-10-13T07:41:07.386Z,90.20
2022-10-13T07:43:35.524Z,90.40
2022-10-13T07:46:05.482Z,90.40
2022-10-13T07:48:33.918Z,90.50
2022-10-13T07:51:07.228Z,90.50
2022-10-13T08:01:01.984Z,90.30
2022-10-13T08:06:00.271Z,90.30
2022-10-13T08:08:29.979Z,90.30
2022-10-13T08:11:02.217Z,90.30
2022-10-13T08:16:01.605Z,90.40
2022-10-13T08:21:33.192Z,90.50
2022-10-13T08:23:51.384Z,90.60
2022-10-13T08:26:22.211Z,90.80
2022-10-13T08:31:38.479Z,90.90
2022-10-13T08:34:06.786Z,90.90
2022-10-13T08:39:04.517Z,90.80
2022-10-13T08:41:36.986Z,90.70
2022-10-13T08:44:56.691Z,90.60
2022-10-13T08:47:03.751Z,90.50
2022-10-13T08:49:32.260Z,90.40
2022-10-13T08:52:06.421Z,90.40
2022-10-13T08:54:35.691Z,90.40
2022-10-13T08:59:33.241Z,90.40
2022-10-13T09:02:01.897Z,90.40
2022-10-13T09:04:33.077Z,90.30
2022-10-13T09:07:07.395Z,90.20
2022-10-13T09:09:37.214Z,90.20
2022-10-13T09:12:07.102Z,90.20
2022-10-13T09:14:37.261Z,90.30
2022-10-13T09:17:18.115Z,90.30
2022-10-13T09:19:58.010Z,90.20
2022-10-13T09:22:28.178Z,90.30
2022-10-13T09:25:17.506Z,90.10
2022-10-13T09:27:47.905Z,90.10
2022-10-13T09:30:34.590Z,90.00
2022-10-13T09:33:26.474Z,90.00
2022-10-13T09:36:12.186Z,90.00
2022-10-13T09:38:41.558Z,90.00
2022-10-13T09:41:18.317Z,90.10
2022-10-13T09:44:02.069Z,90.10
2022-10-13T09:46:33.710Z,90.10
2022-10-13T09:49:05.852Z,90.30
2022-10-13T09:51:40.874Z,90.00
2022-10-13T09:54:26.300Z,89.90
2022-10-13T09:56:59.844Z,90.30
2022-10-13T09:59:34.335Z,89.90
2022-10-13T10:02:19.440Z,90.00
2022-10-13T10:04:50.392Z,89.50
2022-10-13T10:07:22.820Z,89.40
2022-10-13T10:09:55.885Z,89.60
2022-10-13T10:12:29.112Z,89.40
2022-10-13T10:14:57.469Z,89.30
2022-10-13T10:17:31.180Z,89.20
2022-10-13T10:20:07.939Z,89.10
2022-10-13T10:22:41.628Z,89.10
2022-10-13T10:25:29.875Z,89.30
2022-10-13T10:28:17.497Z,89.50
2022-10-13T10:30:52.736Z,89.50
2022-10-13T10:33:24.085Z,90.00
2022-10-13T10:35:57.827Z,89.10
2022-10-13T10:38:36.575Z,88.90
2022-10-13T10:41:13.990Z,89.00
2022-10-13T10:43:52.168Z,88.40
2022-10-13T10:46:23.595Z,88.30
2022-10-13T10:48:55.793Z,88.30
2022-10-13T10:51:29.278Z,88.00
2022-10-13T10:54:04.551Z,86.80
2022-10-13T10:56:35.996Z,87.70
2022-10-13T10:59:18.689Z,87.50
2022-10-13T11:01:52.816Z,90.50
2022-10-13T11:04:40.378Z,87.80
2022-10-13T11:07:13.482Z,87.30
2022-10-13T11:10:17.015Z,87.20
2022-10-13T11:13:22.417Z,87.00
2022-10-13T11:15:51.778Z,86.80
2022-10-13T11:19:11.431Z,86.30
2022-10-13T11:22:16.663Z,86.80
2022-10-13T11:25:04.374Z,86.50
2022-10-13T11:27:43.797Z,86.20
2022-10-13T11:30:49.937Z,86.30
2022-10-13T11:33:58.165Z,86.20
2022-10-13T11:36:49.133Z,86.00
2022-10-13T11:40:02.136Z,85.80
2022-10-13T11:43:00.418Z,85.90
2022-10-13T11:45:41.964Z,86.20
2022-10-13T11:48:42.118Z,88.30
2022-10-13T11:51:23.088Z,85.80
2022-10-13T11:53:57.268Z,85.70
2022-10-13T11:56:38.265Z,85.10
2022-10-13T11:59:22.987Z,84.80
2022-10-13T12:01:55.390Z,84.80
2022-10-13T12:04:24.677Z,84.70
2022-10-13T12:07:01.400Z,84.70
2022-10-13T12:09:31.430Z,85.10
2022-10-13T12:12:02.460Z,84.80
2022-10-13T12:17:24.375Z,88.00
2022-10-13T12:19:53.078Z,85.20
2022-10-13T12:22:22.716Z,85.00
2022-10-13T12:24:58.717Z,84.60
2022-10-13T12:27:27.889Z,85.30
2022-10-13T12:29:56.072Z,85.20
2022-10-13T12:32:26.117Z,85.10
2022-10-13T12:34:53.944Z,85.50
2022-10-13T12:37:33.177Z,85.70
2022-10-13T12:40:02.411Z,85.60
2022-10-13T12:42:35.688Z,88.00
2022-10-13T12:45:04.404Z,86.40
2022-10-13T12:47:47.169Z,86.30
2022-10-13T12:50:36.693Z,86.50
2022-10-13T12:53:16.368Z,87.00
2022-10-13T12:55:50.740Z,86.90
2022-10-13T12:58:23.067Z,87.00
2022-10-13T13:01:08.330Z,86.70
2022-10-13T13:03:38.718Z,90.00
2022-10-13T13:06:12.052Z,86.50
2022-10-13T13:08:42.454Z,86.70
2022-10-13T13:11:22.949Z,88.50
2022-10-13T13:13:50.962Z,86.40
2022-10-13T13:16:20.879Z,86.60
2022-10-13T13:18:50.081Z,86.80
2022-10-13T13:21:20.091Z,87.00
2022-10-13T13:23:53.699Z,87.10
2022-10-13T13:26:23.626Z,86.70
2022-10-13T13:28:53.142Z,86.80
2022-10-13T13:31:23.511Z,86.80
2022-10-13T13:33:52.066Z,87.10
2022-10-13T13:36:22.569Z,86.90
2022-10-13T13:38:52.080Z,89.40
2022-10-13T13:41:20.409Z,87.20
2022-10-13T13:43:49.091Z,87.30
2022-10-13T13:46:20.575Z,89.50
2022-10-13T13:48:48.716Z,87.90
2022-10-13T13:51:16.760Z,87.60
2022-10-13T13:53:44.794Z,89.20
2022-10-13T13:56:14.981Z,87.40
2022-10-13T13:58:43.149Z,87.70
2022-10-13T14:01:11.613Z,87.20
2022-10-13T14:03:39.763Z,89.00
2022-10-13T14:06:08.064Z,87.20
2022-10-13T14:08:42.009Z,87.10
2022-10-13T14:11:10.789Z,87.40
2022-10-13T14:13:40.114Z,86.70
2022-10-13T14:16:08.535Z,90.00
2022-10-13T14:18:36.359Z,86.90
2022-10-13T14:21:07.394Z,86.40
2022-10-13T14:23:36.130Z,86.80
2022-10-13T14:26:07.999Z,86.80
2022-10-13T14:28:35.841Z,86.90
2022-10-13T14:31:10.108Z,86.50
2022-10-13T14:33:38.329Z,86.40
2022-10-13T14:36:08.006Z,86.50
2022-10-13T14:38:36.043Z,86.40
2022-10-13T14:41:05.640Z,86.10
2022-10-13T14:43:33.926Z,86.10
2022-10-13T14:46:03.723Z,86.20
2022-10-13T14:48:33.193Z,87.10
2022-10-13T14:51:04.116Z,85.80
2022-10-13T14:53:34.025Z,85.70
2022-10-13T14:56:02.356Z,85.70
2022-10-13T14:58:30.802Z,86.80
2022-10-13T15:00:58.616Z,85.40
2022-10-13T15:03:27.745Z,85.40
2022-10-13T15:05:56.944Z,85.20
2022-10-13T15:08:24.786Z,85.10
2022-10-13T15:10:59.900Z,85.10
2022-10-13T15:13:27.839Z,85.40
2022-10-13T15:15:58.805Z,85.00
2022-10-13T15:18:29.295Z,85.30
2022-10-13T15:20:59.172Z,85.30
2022-10-13T15:23:27.849Z,85.60
2022-10-13T15:25:58.079Z,85.50
2022-10-13T15:28:27.426Z,85.80
2022-10-13T15:30:56.016Z,85.70
2022-10-13T15:33:24.055Z,85.80
2022-10-13T15:35:52.820Z,85.60
2022-10-13T15:38:22.981Z,85.60
2022-10-13T15:40:50.965Z,85.80
2022-10-13T15:43:19.885Z,85.80
2022-10-13T15:45:55.786Z,85.80
2022-10-13T15:48:24.364Z,86.60
2022-10-13T15:50:52.167Z,86.80
2022-10-13T15:53:21.657Z,86.40
2022-10-13T15:55:49.671Z,86.40
2022-10-13T15:58:18.300Z,86.50
2022-10-13T16:00:46.564Z,86.60
2022-10-13T16:03:17.025Z,86.20
2022-10-13T16:05:46.033Z,86.70
2022-10-13T16:08:14.696Z,86.70
2022-10-13T16:10:44.475Z,86.80
2022-10-13T16:13:15.521Z,86.60
2022-10-13T16:15:43.743Z,86.80
2022-10-13T16:18:11.624Z,86.40
2022-10-13T16:20:45.124Z,86.50
2022-10-13T16:23:12.976Z,86.60
2022-10-13T16:25:41.199Z,86.40
2022-10-13T16:28:10.514Z,89.40
2022-10-13T16:30:38.721Z,86.50
2022-10-13T16:33:06.515Z,86.40
2022-10-13T16:35:35.189Z,86.50
2022-10-13T16:38:03.124Z,86.60
2022-10-13T16:40:31.009Z,89.20
2022-10-13T16:42:58.806Z,90.10
2022-10-13T16:45:47.986Z,86.60
2022-10-13T16:48:15.851Z,86.60
2022-10-13T16:50:43.737Z,86.80
2022-10-13T16:53:11.617Z,86.70
2022-10-13T16:55:40.528Z,86.80
2022-10-13T16:58:08.547Z,86.90
2022-10-13T17:00:38.423Z,87.00
2022-10-13T17:03:06.385Z,87.10
2022-10-13T17:05:34.783Z,88.60
2022-10-13T17:08:02.759Z,88.30
2022-10-13T17:10:30.572Z,87.20
2022-10-13T17:12:58.543Z,87.30
2022-10-13T17:15:26.447Z,88.90
2022-10-13T17:17:56.362Z,87.20
2022-10-13T17:20:24.201Z,87.20
2022-10-13T17:22:52.693Z,87.20
2022-10-13T17:25:22.683Z,87.30
2022-10-13T17:27:50.536Z,88.10
2022-10-13T17:30:18.544Z,87.10
2022-10-13T17:32:46.407Z,87.20
2022-10-13T17:35:18.169Z,90.20
2022-10-13T17:37:46.006Z,87.30
2022-10-13T17:40:14.290Z,87.10
2022-10-13T17:42:42.106Z,87.20
2022-10-13T17:45:10.748Z,87.20
2022-10-13T17:47:38.732Z,87.20
2022-10-13T17:50:07.649Z,86.90
2022-10-13T17:52:37.339Z,87.30
2022-10-13T17:55:05.828Z,87.10
2022-10-13T17:57:33.630Z,87.20
2022-10-13T18:00:01.454Z,87.10
2022-10-13T18:02:29.371Z,87.00
2022-10-13T18:04:57.173Z,88.40
2022-10-13T18:07:25.129Z,86.80
2022-10-13T18:09:54.733Z,88.20
2022-10-13T18:12:22.698Z,86.60
2022-10-13T18:14:50.559Z,86.90
2022-10-13T18:17:18.709Z,86.60
2022-10-13T18:19:48.400Z,86.90
2022-10-13T18:22:17.322Z,86.90
2022-10-13T18:24:45.408Z,89.60
2022-10-13T18:27:14.767Z,87.60
2022-10-13T18:29:42.994Z,88.00
2022-10-13T18:32:10.967Z,88.30
2022-10-13T18:34:38.793Z,88.10
2022-10-13T18:37:06.709Z,89.20
2022-10-13T18:39:35.072Z,87.60
2022-10-13T18:42:03.010Z,87.60
2022-10-13T18:44:32.209Z,87.30
2022-10-13T18:47:00.130Z,87.30
2022-10-13T18:49:31.708Z,87.50
2022-10-13T18:52:00.123Z,87.30
2022-10-13T18:54:28.700Z,88.60
2022-10-13T18:56:57.139Z,87.50
2022-10-13T18:59:25.100Z,87.10
2022-10-13T19:01:54.214Z,87.30
2022-10-13T19:04:22.525Z,87.30
2022-10-13T19:06:50.430Z,87.30
2022-10-13T19:09:18.310Z,87.40
2022-10-13T19:11:46.272Z,87.50
2022-10-13T19:14:14.818Z,87.50
2022-10-13T19:16:44.161Z,87.30
2022-10-13T19:19:13.979Z,87.00
2022-10-13T19:21:42.555Z,87.30
2022-10-13T19:24:11.090Z,89.00
2022-10-13T19:26:39.168Z,87.00
2022-10-13T19:29:08.989Z,87.20
2022-10-13T19:31:37.985Z,86.90
2022-10-13T19:34:06.215Z,86.60
2022-10-13T19:36:38.810Z,86.60
2022-10-13T19:39:11.696Z,86.40
2022-10-13T19:41:40.313Z,86.50
2022-10-13T19:44:08.373Z,86.50
2022-10-13T19:46:36.704Z,86.30
2022-10-13T19:49:04.750Z,86.50
2022-10-13T19:51:33.392Z,86.00
2022-10-13T19:54:02.798Z,86.00
2022-10-13T19:56:32.821Z,86.50
2022-10-13T19:59:00.922Z,85.80
2022-10-13T20:01:29.218Z,85.90
2022-10-13T20:03:57.204Z,86.20
2022-10-13T20:06:25.044Z,85.60
2022-10-13T20:08:52.903Z,85.80
2022-10-13T20:11:24.131Z,85.70
2022-10-13T20:13:53.784Z,85.50
2022-10-13T20:16:25.088Z,85.50
2022-10-13T20:18:54.239Z,85.40
2022-10-13T20:21:22.846Z,85.50
2022-10-13T20:23:51.132Z,85.40
2022-10-13T20:26:21.821Z,85.30
2022-10-13T20:28:52.982Z,85.50
2022-10-13T20:31:23.382Z,85.60
2022-10-13T20:33:55.784Z,85.90
2022-10-13T20:36:25.399Z,86.00
2022-10-13T20:38:53.398Z,86.40
2022-10-13T20:41:25.431Z,86.60
2022-10-13T20:43:54.636Z,86.50
2022-10-13T20:46:23.575Z,86.70
2022-10-13T20:51:41.071Z,86.90
2022-10-13T20:54:09.350Z,87.00
2022-10-13T20:56:39.206Z,87.10
2022-10-13T20:59:09.572Z,87.00
2022-10-13T21:01:37.891Z,87.20
2022-10-13T21:04:06.498Z,87.20
2022-10-13T21:09:02.740Z,87.20
2022-10-13T21:14:00.121Z,86.90
2022-10-13T21:16:29.430Z,86.80
2022-10-13T21:18:58.402Z,86.80
2022-10-13T21:21:28.105Z,86.60
2022-10-13T21:23:57.245Z,86.60
2022-10-13T21:26:27.392Z,86.50
2022-10-13T21:28:55.416Z,86.60
2022-10-13T21:31:25.860Z,86.70
2022-10-13T21:36:23.872Z,87.00
2022-10-13T21:38:53.474Z,87.00
2022-10-13T21:43:50.811Z,86.70
2022-10-13T21:46:20.944Z,87.10
2022-10-13T21:48:50.384Z,87.20
2022-10-13T21:51:20.694Z,87.20
2022-10-13T21:53:50.706Z,87.00
2022-10-13T22:01:15.773Z,87.20
2022-10-13T22:03:43.807Z,87.00
2022-10-13T22:06:18.498Z,87.10
2022-10-13T22:08:49.183Z,89.60
2022-10-13T22:11:18.413Z,87.10
2022-10-13T22:13:46.960Z,87.60
2022-10-13T22:16:17.415Z,87.20
2022-10-13T22:18:45.528Z,87.30
2022-10-13T22:21:16.353Z,87.30
2022-10-13T22:26:16.436Z,87.40
2022-10-13T22:31:14.024Z,87.30
2022-10-13T22:33:43.763Z,87.40
2022-10-13T22:36:16.045Z,87.40
2022-10-13T22:38:44.848Z,87.50
2022-10-13T22:41:13.073Z,87.50
2022-10-13T22:43:41.865Z,87.40
2022-10-13T22:46:09.760Z,87.50
2022-10-13T22:48:40.743Z,87.30
2022-10-13T22:51:10.050Z,87.30
2022-10-13T22:53:39.200Z,87.20
2022-10-13T22:56:08.093Z,87.20
2022-10-13T22:58:36.369Z,87.40
2022-10-13T23:01:08.713Z,87.60
2022-10-13T23:08:33.978Z,87.20
2022-10-13T23:11:03.113Z,87.20
2022-10-13T23:16:02.456Z,87.10
2022-10-13T23:18:30.241Z,86.90
2022-10-13T23:20:58.374Z,87.20
2022-10-13T23:23:26.209Z,86.60
2022-10-13T23:28:23.831Z,86.50
2022-10-13T23:33:20.073Z,86.30
2022-10-13T23:35:55.613Z,86.00
2022-10-13T23:40:52.002Z,85.70
2022-10-13T23:45:49.480Z,85.80
2022-10-13T23:55:42.039Z,86.50
